Time;durP1;ratioP1;P1;durP2;ratioP2;P2;SDS_P1;SDS_P2;PMS_P1;PMS_P2;Temp;Humidity;BMP_temperature;BMP_pressure;BME280_temperature;BME280_humidity;BME280_pressure;Samples;Min_cycle;Max_cycle;Signal;HPM_P1;HPM_P2
2022/05/08 00:01:57;;;;;;;13.63;7.88;;;13.70;84.30;;;;;;5057157;28;20017;-82
2022/05/08 00:04:23;;;;;;;12.52;7.15;;;13.60;84.10;;;;;;5023892;28;20035;-82
2022/05/08 00:06:48;;;;;;;15.13;8.45;;;13.50;84.40;;;;;;5040522;28;20028;-79
2022/05/08 00:09:14;;;;;;;11.88;6.90;;;13.60;84.50;;;;;;5040488;28;20093;-81
2022/05/08 00:11:40;;;;;;;14.48;7.18;;;13.60;84.40;;;;;;5057000;28;20063;-78
2022/05/08 00:14:05;;;;;;;13.73;6.70;;;13.50;84.50;;;;;;5056899;28;20078;-81
2022/05/08 00:16:31;;;;;;;13.30;8.15;;;13.50;84.70;;;;;;5056460;28;20028;-78
2022/05/08 00:18:57;;;;;;;15.05;7.20;;;13.60;84.70;;;;;;5056184;28;20056;-80
2022/05/08 00:21:22;;;;;;;13.20;6.75;;;13.60;84.70;;;;;;5056844;28;20025;-79
2022/05/08 00:23:48;;;;;;;14.23;8.13;;;13.50;84.60;;;;;;5056773;28;20063;-79
2022/05/08 00:26:14;;;;;;;14.00;8.63;;;13.50;84.80;;;;;;5057049;28;20027;-79
2022/05/08 00:28:40;;;;;;;15.40;7.97;;;13.40;84.80;;;;;;5074415;28;20082;-80
2022/05/08 00:31:10;;;;;;;16.98;9.45;;;13.40;85.10;;;;;;5073658;28;20422;-80
2022/05/08 00:33:36;;;;;;;17.38;8.55;;;13.40;85.00;;;;;;5056354;28;20021;-80
2022/05/08 00:36:02;;;;;;;16.95;8.25;;;13.30;85.30;;;;;;5039381;28;20029;-82
2022/05/08 00:38:28;;;;;;;14.00;7.13;;;13.30;85.80;;;;;;5036662;28;20390;-80
2022/05/08 00:40:53;;;;;;;14.32;8.48;;;13.30;85.50;;;;;;5036577;28;20029;-82
2022/05/08 00:43:33;;;;;;;16.20;7.28;;;13.20;86.00;;;;;;5019920;28;20067;-81
2022/05/08 00:46:01;;;;;;;14.45;7.45;;;13.20;85.10;;;;;;5036232;28;20351;-79
2022/05/08 00:48:26;;;;;;;16.98;7.63;;;13.10;85.40;;;;;;5048684;28;20013;-78
2022/05/08 00:50:53;;;;;;;15.02;7.28;;;13.10;86.40;;;;;;5036207;28;20029;-78
2022/05/08 00:53:19;;;;;;;17.52;7.65;;;13.10;85.80;;;;;;5035987;28;20381;-78
2022/05/08 00:55:45;;;;;;;19.17;8.40;;;13.10;85.60;;;;;;5019746;28;20430;-79
2022/05/08 00:58:11;;;;;;;16.35;7.63;;;13.00;85.80;;;;;;5036285;28;20025;-79
2022/05/08 01:00:37;;;;;;;13.52;6.60;;;13.00;85.60;;;;;;5020123;28;20036;-80
2022/05/08 01:03:03;;;;;;;17.50;7.95;;;13.00;85.50;;;;;;5035911;28;20029;-82
2022/05/08 01:05:30;;;;;;;15.10;6.75;;;13.00;85.40;;;;;;5053775;28;20178;-81
2022/05/08 01:07:56;;;;;;;12.95;6.63;;;13.00;85.50;;;;;;5053994;28;20045;-79
2022/05/08 01:10:22;;;;;;;14.48;6.25;;;13.00;85.20;;;;;;5036158;28;20485;-79
2022/05/08 01:12:47;;;;;;;19.13;6.80;;;12.90;84.80;;;;;;5019241;28;20029;-79
2022/05/08 01:15:15;;;;;;;15.57;6.55;;;12.90;84.50;;;;;;5053628;28;20110;-79
2022/05/08 01:17:40;;;;;;;16.38;6.03;;;12.90;84.50;;;;;;5053632;28;20033;-80
2022/05/08 01:20:07;;;;;;;14.77;6.78;;;12.90;84.30;;;;;;5035721;28;20025;-79
2022/05/08 01:22:33;;;;;;;14.23;5.57;;;12.80;84.10;;;;;;5053706;28;20097;-80
2022/05/08 01:25:03;;;;;;;14.40;5.95;;;12.80;84.10;;;;;;5035521;28;20036;-79
2022/05/08 01:27:28;;;;;;;15.75;6.10;;;12.80;84.00;;;;;;5035756;28;20022;-76
2022/05/08 01:29:54;;;;;;;15.55;5.72;;;12.70;83.90;;;;;;5019269;28;20074;-76
2022/05/08 01:32:20;;;;;;;14.50;5.38;;;12.70;83.90;;;;;;5035461;28;20389;-76
2022/05/08 01:34:45;;;;;;;16.75;6.82;;;12.80;83.90;;;;;;5019082;28;20037;-77
2022/05/08 01:37:11;;;;;;;16.67;5.90;;;12.70;84.00;;;;;;5019076;28;20501;-76
2022/05/08 01:39:36;;;;;;;20.48;6.35;;;12.60;84.40;;;;;;5018990;28;20036;-76
2022/05/08 01:42:06;;;;;;;19.48;5.57;;;12.60;84.70;;;;;;5018997;28;20127;-76
2022/05/08 01:44:34;;;;;;;16.50;5.22;;;12.60;84.30;;;;;;5003659;28;20435;-76
2022/05/08 01:49:44;;;;;;;20.88;5.95;;;12.60;83.70;;;;;;5038551;28;20144;-76
2022/05/08 01:52:10;;;;;;;16.85;5.43;;;12.50;83.60;;;;;;5053199;28;20120;-76
2022/05/08 01:54:35;;;;;;;19.17;5.70;;;12.50;83.60;;;;;;5053209;28;20040;-77
2022/05/08 01:57:01;;;;;;;19.05;4.97;;;12.50;83.50;;;;;;5035394;28;20080;-77
2022/05/08 01:59:27;;;;;;;19.88;4.93;;;12.40;83.40;;;;;;5035440;28;20098;-76
2022/05/08 02:01:52;;;;;;;18.90;5.38;;;12.30;83.70;;;;;;5035226;28;20040;-76
2022/05/08 02:04:19;;;;;;;22.73;5.18;;;12.50;83.70;;;;;;5018835;28;20033;-76
2022/05/08 02:06:45;;;;;;;18.85;3.90;;;12.40;83.60;;;;;;5018757;28;20028;-76
2022/05/08 02:09:11;;;;;;;17.95;5.63;;;12.40;83.50;;;;;;5018645;28;20520;-78
2022/05/08 02:11:37;;;;;;;15.68;3.97;;;12.40;83.80;;;;;;5020123;28;20061;-77
2022/05/08 02:14:04;;;;;;;15.75;4.20;;;12.40;83.70;;;;;;5051879;28;20041;-76
2022/05/08 02:16:30;;;;;;;21.88;5.15;;;12.40;83.60;;;;;;5018932;28;20043;-76
2022/05/08 02:18:56;;;;;;;22.42;3.85;;;12.40;83.40;;;;;;5034982;28;20063;-77
2022/05/08 02:21:22;;;;;;;16.73;4.07;;;12.40;83.40;;;;;;5035092;28;20535;-76
2022/05/08 02:23:47;;;;;;;21.60;4.22;;;12.30;83.70;;;;;;5035221;28;20036;-76
2022/05/08 02:26:13;;;;;;;20.52;5.05;;;12.30;83.50;;;;;;5035558;28;20029;-76
2022/05/08 02:28:39;;;;;;;16.23;3.72;;;12.30;83.40;;;;;;5034910;28;20025;-77
2022/05/08 02:31:05;;;;;;;16.02;3.85;;;12.30;83.20;;;;;;5018397;28;20036;-76
2022/05/08 02:33:32;;;;;;;24.27;4.38;;;12.30;83.20;;;;;;5035111;28;20041;-76
2022/05/08 02:35:57;;;;;;;18.10;3.55;;;12.20;83.20;;;;;;5034860;28;20462;-77
2022/05/08 02:38:24;;;;;;;24.20;4.38;;;12.20;83.50;;;;;;5034953;28;20032;-77
2022/05/08 02:40:51;;;;;;;20.55;4.13;;;12.20;83.20;;;;;;5036862;28;20033;-77
2022/05/08 02:43:20;;;;;;;16.92;3.78;;;12.00;83.00;;;;;;5038538;28;20370;-76
2022/05/08 02:45:47;;;;;;;22.83;4.43;;;12.20;83.40;;;;;;5006860;28;20116;-77
2022/05/08 02:48:13;;;;;;;17.75;3.42;;;12.10;83.50;;;;;;5038706;28;20036;-77
2022/05/08 02:50:38;;;;;;;14.20;2.97;;;12.00;83.40;;;;;;5038752;28;20029;-76
2022/05/08 02:53:04;;;;;;;15.73;4.47;;;12.00;83.80;;;;;;5021995;28;20041;-77
2022/05/08 03:00:59;;;;;;;25.55;4.30;;;12.00;83.70;;;;;;5056571;28;20566;-76
2022/05/08 03:03:25;;;;;;;21.15;4.15;;;11.90;83.90;;;;;;5038195;28;20223;-76
2022/05/08 03:05:51;;;;;;;15.95;4.60;;;11.90;83.60;;;;;;5056155;28;20103;-75
2022/05/08 03:08:17;;;;;;;16.55;3.38;;;11.90;83.60;;;;;;5038245;28;20056;-76
2022/05/08 03:13:29;;;;;;;21.85;4.70;;;11.80;83.80;;;;;;5041536;28;20040;-76
2022/05/08 03:15:55;;;;;;;16.77;3.50;;;11.90;84.20;;;;;;5038070;28;20028;-76
2022/05/08 03:18:22;;;;;;;17.58;3.60;;;11.80;84.10;;;;;;5037991;28;20033;-76
2022/05/08 03:20:47;;;;;;;21.80;3.47;;;11.80;84.00;;;;;;5038072;28;20031;-76
2022/05/08 03:23:14;;;;;;;18.08;3.75;;;11.70;83.90;;;;;;5037934;28;20037;-76
2022/05/08 03:25:40;;;;;;;22.10;4.45;;;11.80;84.00;;;;;;5037854;28;20136;-76
2022/05/08 03:28:05;;;;;;;19.83;4.22;;;11.90;84.00;;;;;;5037900;28;20489;-76
2022/05/08 03:30:31;;;;;;;16.70;3.67;;;11.70;83.90;;;;;;5037798;28;20036;-76
2022/05/08 03:32:58;;;;;;;25.58;4.13;;;11.70;83.80;;;;;;5037690;28;20090;-76
2022/05/08 03:35:24;;;;;;;22.60;3.63;;;11.70;83.80;;;;;;5021531;28;20025;-76
2022/05/08 03:37:50;;;;;;;26.02;4.05;;;11.70;83.80;;;;;;5037905;28;20082;-76
2022/05/08 03:40:16;;;;;;;15.27;3.23;;;11.80;83.80;;;;;;5021334;28;20363;-77
2022/05/08 03:42:44;;;;;;;17.85;3.70;;;11.70;83.80;;;;;;5004698;28;20020;-76
2022/05/08 03:45:10;;;;;;;20.13;2.83;;;11.60;83.60;;;;;;5004739;28;20079;-76
2022/05/08 03:47:36;;;;;;;17.42;3.42;;;11.60;83.60;;;;;;5037556;28;20061;-76
2022/05/08 03:50:02;;;;;;;25.52;4.70;;;11.60;83.80;;;;;;5055584;28;20064;-76
2022/05/08 03:52:28;;;;;;;18.83;3.07;;;11.50;83.80;;;;;;5054073;28;20025;-76
2022/05/08 03:54:53;;;;;;;19.57;3.63;;;11.50;83.80;;;;;;5020940;28;20085;-76
2022/05/08 03:57:19;;;;;;;15.50;3.00;;;11.50;83.80;;;;;;5037321;28;20029;-76
2022/05/08 03:59:45;;;;;;;15.32;3.25;;;11.50;83.80;;;;;;5037631;28;20079;-76
2022/05/08 04:02:10;;;;;;;17.17;3.27;;;11.40;84.20;;;;;;5055284;28;20029;-76
2022/05/08 04:04:36;;;;;;;19.27;3.27;;;11.40;84.10;;;;;;5037200;28;20033;-76
2022/05/08 04:07:02;;;;;;;22.63;5.20;;;11.40;84.20;;;;;;5020646;28;20033;-75
2022/05/08 04:09:28;;;;;;;16.97;3.07;;;11.30;84.20;;;;;;5037147;28;20053;-77
2022/05/08 04:11:54;;;;;;;17.65;3.45;;;11.30;84.30;;;;;;5037065;28;20086;-76
2022/05/08 04:14:19;;;;;;;15.60;2.90;;;11.30;84.30;;;;;;5037459;28;20037;-76
2022/05/08 04:16:47;;;;;;;20.90;4.10;;;11.20;84.30;;;;;;5020368;28;20060;-76
2022/05/08 04:19:12;;;;;;;20.53;2.90;;;11.20;84.40;;;;;;5020521;28;20492;-76
2022/05/08 04:21:38;;;;;;;23.37;3.60;;;11.30;84.60;;;;;;5036943;28;20064;-76
2022/05/08 04:24:19;;;;;;;16.70;3.10;;;11.20;84.80;;;;;;5037003;28;20044;-75
2022/05/08 04:26:46;;;;;;;16.40;3.33;;;11.20;84.90;;;;;;5036997;28;20438;-75
2022/05/08 04:29:11;;;;;;;21.83;3.97;;;11.20;85.30;;;;;;5036768;28;20021;-76
2022/05/08 04:31:37;;;;;;;20.95;3.70;;;11.10;84.80;;;;;;5003940;28;20508;-76
2022/05/08 04:34:03;;;;;;;17.20;3.83;;;11.10;84.90;;;;;;5036525;28;20037;-76
2022/05/08 04:36:29;;;;;;;22.00;3.67;;;11.10;84.90;;;;;;5020292;28;20481;-76
2022/05/08 04:38:55;;;;;;;19.03;3.93;;;11.10;85.10;;;;;;5054927;28;20029;-76
2022/05/08 04:41:21;;;;;;;21.80;3.13;;;11.00;84.90;;;;;;5036466;28;20044;-76
2022/05/08 04:43:46;;;;;;;17.53;2.77;;;11.00;84.90;;;;;;5036636;28;20024;-76
2022/05/08 04:46:12;;;;;;;18.50;3.13;;;11.00;85.00;;;;;;5036430;28;20029;-76
2022/05/08 04:48:38;;;;;;;16.67;3.57;;;10.90;85.00;;;;;;5019974;28;20025;-76
2022/05/08 04:51:05;;;;;;;18.40;3.30;;;10.90;85.80;;;;;;5054180;28;20110;-76
2022/05/08 04:53:31;;;;;;;24.83;3.47;;;10.90;85.30;;;;;;5054040;28;20047;-75
2022/05/08 04:55:57;;;;;;;13.60;2.90;;;10.90;85.50;;;;;;5019791;28;20123;-76
2022/05/08 04:58:23;;;;;;;15.77;3.33;;;10.90;86.10;;;;;;5036565;28;20400;-76
2022/05/08 05:00:49;;;;;;;20.53;3.40;;;11.00;85.50;;;;;;5054035;28;20116;-76
2022/05/08 05:03:14;;;;;;;21.57;3.27;;;11.00;85.50;;;;;;5053706;28;20374;-76
2022/05/08 05:05:40;;;;;;;18.13;2.70;;;10.80;85.40;;;;;;5036514;28;20535;-76
2022/05/08 05:08:06;;;;;;;19.73;2.90;;;10.80;85.60;;;;;;5054180;28;20059;-76
2022/05/08 05:10:32;;;;;;;17.03;2.93;;;10.80;85.70;;;;;;5053743;28;20043;-76
2022/05/08 05:12:58;;;;;;;21.40;4.67;;;10.80;85.80;;;;;;5035805;28;20029;-76
2022/05/08 05:15:24;;;;;;;20.63;4.10;;;10.90;85.90;;;;;;5036041;28;20043;-76
2022/05/08 05:17:53;;;;;;;21.57;3.60;;;10.80;85.80;;;;;;5019610;28;20129;-76
2022/05/08 05:20:19;;;;;;;18.48;4.10;;;10.80;85.80;;;;;;5036111;28;20086;-76
2022/05/08 05:22:44;;;;;;;16.70;3.27;;;10.80;86.00;;;;;;5053527;28;20112;-75
2022/05/08 05:25:10;;;;;;;19.37;4.27;;;10.80;86.20;;;;;;5036032;28;20029;-76
2022/05/08 05:27:36;;;;;;;23.73;3.67;;;10.80;86.30;;;;;;5035782;28;20055;-76
2022/05/08 05:30:03;;;;;;;14.17;3.30;;;10.80;86.40;;;;;;5036077;28;20033;-78
2022/05/08 05:32:29;;;;;;;19.73;4.60;;;10.80;86.50;;;;;;5036211;28;20029;-78
2022/05/08 05:34:55;;;;;;;27.20;3.93;;;10.80;86.40;;;;;;5019253;28;20037;-78
2022/05/08 05:37:20;;;;;;;15.23;3.20;;;10.90;86.50;;;;;;5019204;28;20461;-79
2022/05/08 05:39:46;;;;;;;21.20;3.23;;;10.80;86.40;;;;;;5019105;28;20087;-79
2022/05/08 05:42:12;;;;;;;21.27;4.07;;;10.80;86.30;;;;;;5035508;28;20131;-79
2022/05/08 05:44:40;;;;;;;20.47;3.83;;;10.80;86.30;;;;;;5018950;28;20040;-79
2022/05/08 05:49:50;;;;;;;16.40;3.83;;;10.90;86.30;;;;;;5038701;28;20051;-77
2022/05/08 05:52:16;;;;;;;16.80;3.90;;;10.90;86.40;;;;;;5018960;28;20115;-78
2022/05/08 05:54:41;;;;;;;18.00;4.63;;;11.00;86.40;;;;;;5035423;28;20147;-77
2022/05/08 05:57:07;;;;;;;21.50;4.83;;;10.90;86.20;;;;;;5043719;28;20525;-78
2022/05/08 05:59:33;;;;;;;19.63;3.33;;;10.90;86.50;;;;;;5002747;28;20033;-79
2022/05/08 06:01:58;;;;;;;16.93;2.90;;;11.00;86.50;;;;;;5035472;28;20466;-77
2022/05/08 06:04:24;;;;;;;17.37;3.20;;;11.00;86.30;;;;;;5018618;28;20032;-79
2022/05/08 06:06:49;;;;;;;15.43;2.80;;;11.00;86.20;;;;;;5035271;28;20045;-80
2022/05/08 06:09:15;;;;;;;27.95;4.43;;;11.10;86.20;;;;;;5018721;28;20501;-79
2022/05/08 06:11:41;;;;;;;18.45;2.85;;;11.20;86.00;;;;;;5035730;28;20116;-79
2022/05/08 06:14:06;;;;;;;18.80;3.10;;;11.20;85.80;;;;;;5018836;28;20037;-80
2022/05/08 06:16:32;;;;;;;19.70;3.05;;;11.30;85.70;;;;;;5021485;28;20036;-79
2022/05/08 06:18:58;;;;;;;12.23;2.55;;;11.30;85.40;;;;;;5039702;28;20029;-79
2022/05/08 06:21:25;;;;;;;16.58;2.83;;;11.30;85.10;;;;;;5023137;28;20033;-78
2022/05/08 06:23:52;;;;;;;14.02;2.75;;;11.50;85.10;;;;;;5022942;28;20040;-78
2022/05/08 06:26:18;;;;;;;15.93;2.83;;;11.50;84.80;;;;;;5039176;28;20025;-79
2022/05/08 06:28:45;;;;;;;23.42;3.35;;;11.60;84.60;;;;;;5006253;28;20362;-79
2022/05/08 06:31:11;;;;;;;15.05;2.60;;;11.60;84.00;;;;;;5022693;28;20082;-78
2022/05/08 06:33:36;;;;;;;14.63;2.35;;;11.60;84.40;;;;;;5022551;28;20029;-78
2022/05/08 06:36:02;;;;;;;13.23;2.35;;;11.70;83.80;;;;;;5022681;28;20040;-80
2022/05/08 06:38:28;;;;;;;15.65;2.95;;;11.70;83.50;;;;;;5056678;28;20123;-78
2022/05/08 06:40:53;;;;;;;11.43;2.15;;;11.70;83.10;;;;;;5038722;28;20099;-78
2022/05/08 06:43:19;;;;;;;18.83;3.50;;;11.70;82.60;;;;;;5022195;28;20031;-79
2022/05/08 06:45:44;;;;;;;16.17;2.67;;;11.80;82.70;;;;;;5039183;28;20033;-79
2022/05/08 06:48:10;;;;;;;13.18;2.30;;;11.70;82.50;;;;;;5038774;28;20053;-78
2022/05/08 06:50:36;;;;;;;8.63;2.10;;;11.70;82.40;;;;;;5038560;28;20053;-75
2022/05/08 06:53:04;;;;;;;13.57;2.25;;;11.80;82.20;;;;;;5022201;28;20104;-78
2022/05/08 06:55:30;;;;;;;11.02;1.85;;;11.80;82.00;;;;;;5038703;28;20108;-77
2022/05/08 06:57:55;;;;;;;12.35;2.17;;;11.80;82.10;;;;;;5005677;28;20174;-77
2022/05/08 07:03:05;;;;;;;12.68;2.60;;;11.90;82.10;;;;;;5056306;28;20052;-77
2022/05/08 07:05:31;;;;;;;17.33;2.28;;;12.00;81.60;;;;;;5005375;28;20826;-77
2022/05/08 07:07:57;;;;;;;16.80;2.15;;;12.00;81.30;;;;;;5055883;28;20045;-77
2022/05/08 07:10:23;;;;;;;11.95;2.17;;;12.10;80.50;;;;;;5021649;28;20613;-76
2022/05/08 07:12:48;;;;;;;13.18;2.08;;;12.10;80.10;;;;;;5038163;28;20048;-77
2022/05/08 07:15:14;;;;;;;13.13;1.98;;;12.10;79.90;;;;;;5038026;28;20021;-77
2022/05/08 07:17:42;;;;;;;12.65;1.65;;;12.10;80.10;;;;;;5021615;28;20036;-77
2022/05/08 07:20:08;;;;;;;10.43;1.63;;;12.20;79.40;;;;;;5021892;28;20039;-78
2022/05/08 07:22:35;;;;;;;17.92;2.60;;;12.20;78.70;;;;;;5021390;28;20041;-77
2022/05/08 07:25:01;;;;;;;11.32;2.38;;;12.20;78.00;;;;;;5021509;28;20033;-77
2022/05/08 07:27:27;;;;;;;12.00;2.30;;;12.20;78.40;;;;;;5021451;28;20027;-77
2022/05/08 07:29:53;;;;;;;17.17;2.47;;;12.20;78.80;;;;;;5005502;28;20111;-77
2022/05/08 07:32:19;;;;;;;13.30;1.52;;;12.30;79.00;;;;;;5038434;28;20025;-77
2022/05/08 07:37:29;;;;;;;10.48;2.22;;;12.40;79.10;;;;;;5040798;28;20433;-77
2022/05/08 07:39:54;;;;;;;8.30;2.10;;;12.40;78.40;;;;;;5037530;28;20025;-77
2022/05/08 07:42:20;;;;;;;12.80;1.88;;;12.40;77.60;;;;;;5021211;28;20037;-78
2022/05/08 07:44:46;;;;;;;14.98;2.63;;;12.40;77.40;;;;;;5055356;28;20037;-77
2022/05/08 07:47:11;;;;;;;11.38;1.83;;;12.50;77.60;;;;;;5021068;28;20024;-77
2022/05/08 07:49:37;;;;;;;8.07;1.58;;;12.50;77.50;;;;;;5037542;28;20021;-77
2022/05/08 07:52:03;;;;;;;13.88;1.83;;;12.60;77.60;;;;;;5037750;28;20436;-77
2022/05/08 07:54:29;;;;;;;12.70;1.88;;;12.60;77.50;;;;;;5020958;28;20025;-78
2022/05/08 07:56:54;;;;;;;10.98;1.80;;;12.70;77.20;;;;;;5021039;28;20032;-77
2022/05/08 07:59:20;;;;;;;16.98;2.78;;;12.70;77.20;;;;;;5020870;28;20029;-78
2022/05/08 08:01:46;;;;;;;10.48;2.03;;;12.80;76.70;;;;;;5037498;28;20037;-78
2022/05/08 08:04:11;;;;;;;11.25;1.73;;;12.80;76.20;;;;;;5037163;28;20021;-76
2022/05/08 08:06:37;;;;;;;17.23;2.55;;;12.90;76.10;;;;;;5055002;28;20029;-77
2022/05/08 08:09:04;;;;;;;10.60;2.10;;;12.90;75.80;;;;;;5054743;28;20507;-77
2022/05/08 08:11:34;;;;;;;9.45;1.75;;;13.00;75.90;;;;;;5020707;28;20043;-76
2022/05/08 08:13:59;;;;;;;7.72;1.60;;;13.00;75.40;;;;;;5021095;28;20075;-78
2022/05/08 08:16:25;;;;;;;10.98;1.65;;;13.10;75.30;;;;;;5054767;28;20029;-77
2022/05/08 08:18:54;;;;;;;9.23;1.60;;;13.10;75.00;;;;;;5020387;28;20025;-80
2022/05/08 08:21:20;;;;;;;11.20;1.90;;;13.20;74.50;;;;;;5037493;28;20033;-79
2022/05/08 08:23:45;;;;;;;10.75;1.70;;;13.10;74.70;;;;;;5020208;28;20033;-79
2022/05/08 08:26:12;;;;;;;19.98;2.22;;;13.30;75.00;;;;;;5020292;28;20055;-79
2022/05/08 08:28:38;;;;;;;11.20;1.80;;;13.30;75.00;;;;;;5036572;28;20086;-79
2022/05/08 08:31:08;;;;;;;14.93;1.80;;;13.40;75.00;;;;;;5020172;28;20017;-79
2022/05/08 08:33:40;;;;;;;11.95;1.88;;;13.40;74.90;;;;;;5020254;28;20028;-79
2022/05/08 08:36:08;;;;;;;9.65;1.70;;;13.50;74.10;;;;;;5054328;28;20111;-80
2022/05/08 08:38:35;;;;;;;12.90;2.33;;;13.60;73.50;;;;;;5035853;28;20427;-74
2022/05/08 08:41:04;;;;;;;9.18;1.35;;;13.60;73.00;;;;;;5020139;28;20367;-74
2022/05/08 08:49:01;;;;;;;13.15;2.00;;;13.80;72.40;;;;;;5054576;28;20103;-75
2022/05/08 08:51:27;;;;;;;14.20;2.45;;;13.80;71.70;;;;;;5003426;28;20053;-75
2022/05/08 08:53:55;;;;;;;7.30;1.48;;;13.80;71.30;;;;;;5019908;28;20498;-76
2022/05/08 08:56:21;;;;;;;13.35;1.42;;;13.90;71.20;;;;;;5020463;28;20033;-77
2022/05/08 08:58:47;;;;;;;8.60;1.73;;;14.00;70.70;;;;;;5020041;28;20033;-76
2022/05/08 09:01:16;;;;;;;10.27;1.23;;;14.00;70.70;;;;;;5036096;28;20082;-76
2022/05/08 09:03:42;;;;;;;9.05;1.73;;;14.00;69.50;;;;;;5019366;28;20029;-76
2022/05/08 09:06:09;;;;;;;9.50;1.52;;;14.10;68.80;;;;;;5036010;28;20056;-82
2022/05/08 09:08:38;;;;;;;9.55;1.38;;;14.20;68.20;;;;;;5035828;28;20052;-80
2022/05/08 09:11:03;;;;;;;8.48;1.27;;;14.20;68.80;;;;;;5019782;28;20025;-80
2022/05/08 09:13:30;;;;;;;7.93;1.25;;;14.30;68.10;;;;;;5036092;28;20029;-79
2022/05/08 09:16:02;;;;;;;9.32;1.50;;;14.40;68.60;;;;;;5035878;28;20196;-79
2022/05/08 09:18:28;;;;;;;9.68;1.55;;;14.40;68.20;;;;;;5060116;28;20016;-79
2022/05/08 09:20:57;;;;;;;9.38;1.27;;;14.60;68.50;;;;;;5073667;28;20028;-80
2022/05/08 09:23:23;;;;;;;9.85;1.55;;;14.60;68.40;;;;;;5073627;28;20109;-80
2022/05/08 09:25:57;;;;;;;9.93;1.65;;;14.80;67.90;;;;;;5073653;28;20024;-77
2022/05/08 09:28:34;;;;;;;7.20;1.10;;;14.90;67.90;;;;;;5073460;28;20020;-81
2022/05/08 09:31:05;;;;;;;10.23;1.65;;;14.90;68.00;;;;;;5073633;28;20024;-81
2022/05/08 09:33:37;;;;;;;5.60;1.05;;;15.10;67.60;;;;;;5055753;28;20025;-79
2022/05/08 09:36:05;;;;;;;6.97;1.45;;;15.10;67.40;;;;;;5073406;28;20024;-79
2022/05/08 09:38:40;;;;;;;8.63;1.60;;;15.20;67.10;;;;;;5073337;28;20020;-80
2022/05/08 09:41:06;;;;;;;8.40;1.55;;;15.30;66.70;;;;;;5055394;28;20485;-78
2022/05/08 09:43:34;;;;;;;8.18;1.48;;;15.30;66.90;;;;;;5038734;28;20020;-75
2022/05/08 09:46:00;;;;;;;8.90;1.55;;;15.30;67.00;;;;;;5054905;28;20074;-76
2022/05/08 09:48:28;;;;;;;5.80;0.82;;;15.40;67.00;;;;;;5049710;28;20475;-75
2022/05/08 09:50:57;;;;;;;6.95;1.08;;;15.40;66.70;;;;;;5037292;28;20440;-75
2022/05/08 09:53:24;;;;;;;10.05;1.63;;;15.30;66.50;;;;;;5063027;28;20070;-74
2022/05/08 09:55:52;;;;;;;6.40;1.20;;;15.50;66.70;;;;;;5076142;28;20017;-75
2022/05/08 09:58:18;;;;;;;5.68;0.80;;;15.50;66.60;;;;;;5068067;28;20059;-74
2022/05/08 10:00:45;;;;;;;7.60;1.05;;;15.60;67.10;;;;;;5075475;28;20060;-75
2022/05/08 10:03:11;;;;;;;6.65;0.90;;;15.70;66.30;;;;;;5075032;28;20048;-74
2022/05/08 10:05:37;;;;;;;6.60;1.10;;;15.80;66.00;;;;;;5075145;28;20448;-74
2022/05/08 10:08:05;;;;;;;7.78;1.25;;;15.80;66.20;;;;;;5093307;28;20046;-75
2022/05/08 10:13:56;;;;;;;7.38;1.35;;;15.90;65.20;;;;;;5093782;28;20426;-75
2022/05/08 10:16:48;;;;;;;9.40;1.23;;;16.10;64.50;;;;;;5077695;28;20039;-75
2022/05/08 10:19:19;;;;;;;6.07;0.95;;;16.20;64.20;;;;;;5063623;28;20032;-76
2022/05/08 10:21:57;;;;;;;6.65;1.33;;;16.30;64.20;;;;;;5055379;28;20047;-75
2022/05/08 10:24:33;;;;;;;5.90;0.88;;;16.30;63.70;;;;;;5073021;28;20122;-75
2022/05/08 10:27:24;;;;;;;6.70;1.10;;;16.50;63.10;;;;;;5089230;28;20040;-76
2022/05/08 10:29:50;;;;;;;8.70;0.98;;;16.70;61.80;;;;;;5066377;28;20594;-76
2022/05/08 10:35:15;;;;;;;6.95;0.77;;;17.20;60.70;;;;;;5093415;28;20028;-76
2022/05/08 10:37:41;;;;;;;7.55;1.20;;;17.30;59.90;;;;;;5077469;28;20086;-78
2022/05/08 11:39:22;;;;;;;5.07;0.75;;;22.60;49.30;;;;;;5019364;28;20052;-83
2022/05/08 11:42:07;;;;;;;4.68;1.00;;;22.90;49.10;;;;;;5034059;28;20503;-83
2022/05/08 11:44:33;;;;;;;5.65;0.70;;;23.20;49.00;;;;;;5034095;28;20040;-85
2022/05/08 11:47:19;;;;;;;5.22;0.98;;;23.50;48.30;;;;;;5035164;28;20089;-83
2022/05/08 11:50:06;;;;;;;7.07;1.20;;;23.70;47.10;;;;;;5034366;28;20492;-84
2022/05/08 11:52:51;;;;;;;4.75;0.85;;;23.90;46.20;;;;;;5034448;28;20022;-85
2022/05/08 11:58:04;;;;;;;5.32;0.90;;;24.30;46.00;;;;;;5035187;28;20527;-83
2022/05/08 12:00:31;;;;;;;4.93;0.98;;;24.40;45.60;;;;;;5034464;28;20017;-83
2022/05/08 12:03:02;;;;;;;5.03;0.70;;;24.60;44.80;;;;;;5036301;28;20083;-84
2022/05/08 12:05:28;;;;;;;4.72;0.68;;;24.80;44.10;;;;;;5034327;28;20037;-83
2022/05/08 12:10:40;;;;;;;4.25;0.60;;;25.20;42.80;;;;;;5034301;28;20048;-84
2022/05/08 12:16:11;;;;;;;4.57;0.77;;;25.70;41.60;;;;;;5034949;28;20041;-84
2022/05/08 12:18:37;;;;;;;3.53;0.77;;;25.90;40.60;;;;;;5034879;28;20038;-83
2022/05/08 12:21:02;;;;;;;3.78;1.00;;;26.10;40.90;;;;;;5033459;28;20397;-83
2022/05/08 12:23:29;;;;;;;4.88;0.90;;;26.30;40.70;;;;;;5017315;28;20079;-84
2022/05/08 12:25:56;;;;;;;3.28;0.70;;;26.50;40.60;;;;;;5017566;28;20034;-84
2022/05/08 12:31:25;;;;;;;3.03;0.70;;;26.80;39.90;;;;;;5034180;28;20508;-84
2022/05/08 12:36:34;;;;;;;4.82;0.88;;;27.30;39.40;;;;;;5044644;28;20515;-84
2022/05/08 12:39:00;;;;;;;4.20;0.63;;;27.50;39.00;;;;;;5019967;28;20033;-85
2022/05/08 12:41:45;;;;;;;3.35;0.60;;;27.70;38.40;;;;;;5036659;28;20481;-85
2022/05/08 12:44:12;;;;;;;6.15;0.80;;;28.00;37.20;;;;;;5054581;28;20083;-85
2022/05/08 12:46:57;;;;;;;5.57;1.15;;;28.20;37.60;;;;;;5036904;28;20075;-83
2022/05/08 12:49:24;;;;;;;4.90;0.80;;;28.40;36.70;;;;;;5020181;28;20428;-83
2022/05/08 12:51:49;;;;;;;4.40;0.70;;;28.50;37.10;;;;;;5045964;28;20124;-82
2022/05/08 13:00:41;;;;;;;3.63;0.73;;;29.10;35.70;;;;;;5033404;28;20092;-83
2022/05/08 13:03:26;;;;;;;2.70;0.60;;;29.30;35.60;;;;;;5034575;28;20057;-84
2022/05/08 13:05:51;;;;;;;4.93;0.80;;;29.40;36.10;;;;;;5033167;28;20056;-84
2022/05/08 13:11:02;;;;;;;4.07;0.80;;;29.60;35.60;;;;;;5034322;28;20401;-83
2022/05/08 13:16:32;;;;;;;4.32;0.80;;;29.80;34.80;;;;;;5032709;28;20119;-83
2022/05/08 13:18:58;;;;;;;3.42;0.77;;;29.90;34.20;;;;;;5016350;28;20030;-83
2022/05/08 13:21:44;;;;;;;2.38;0.70;;;30.10;34.60;;;;;;5033879;28;20026;-83
2022/05/08 13:24:28;;;;;;;4.57;0.70;;;30.20;34.30;;;;;;5033536;28;20037;-83
2022/05/08 13:26:57;;;;;;;4.70;0.70;;;30.40;33.90;;;;;;5033518;28;20025;-83
2022/05/08 13:32:26;;;;;;;4.40;0.85;;;30.60;32.80;;;;;;5034051;28;20056;-83
2022/05/08 13:34:51;;;;;;;2.30;0.60;;;30.90;33.50;;;;;;5032407;28;20465;-83
2022/05/08 13:37:17;;;;;;;2.35;0.68;;;31.00;33.20;;;;;;5032270;28;20053;-84
2022/05/08 13:40:03;;;;;;;3.88;0.65;;;31.10;32.60;;;;;;5033561;28;20481;-84
2022/05/08 13:42:31;;;;;;;4.95;0.70;;;31.30;31.50;;;;;;5015950;28;20060;-83
2022/05/08 13:45:34;;;;;;;2.95;0.50;;;31.40;32.00;;;;;;5016036;28;20041;-83
2022/05/08 13:48:00;;;;;;;2.67;0.60;;;31.50;31.00;;;;;;5033672;28;20036;-83
2022/05/08 13:50:26;;;;;;;4.95;0.85;;;31.70;31.80;;;;;;5015801;28;20280;-83
2022/05/08 13:55:56;;;;;;;3.50;0.55;;;32.00;31.60;;;;;;5048443;28;20550;-82
2022/05/08 14:04:10;;;;;;;2.55;0.70;;;32.50;30.70;;;;;;5033284;28;20052;-84
2022/05/08 14:10:17;;;;;;;2.25;0.70;;;32.90;29.90;;;;;;5033461;28;20076;-83
2022/05/08 14:13:01;;;;;;;2.90;0.68;;;33.00;29.80;;;;;;5033381;28;20111;-82
2022/05/08 14:15:27;;;;;;;2.88;0.52;;;33.00;29.70;;;;;;4999132;28;20030;-83
2022/05/08 14:20:55;;;;;;;3.40;0.47;;;33.20;29.40;;;;;;5033662;28;20048;-83
2022/05/08 14:29:27;;;;;;;3.50;0.77;;;33.50;29.30;;;;;;5018592;28;20508;-82
2022/05/08 14:37:59;;;;;;;4.10;0.82;;;33.40;29.80;;;;;;5056209;28;20056;-84
2022/05/08 14:40:25;;;;;;;4.28;0.82;;;33.40;29.90;;;;;;5038709;28;20037;-83
2022/05/08 14:42:51;;;;;;;4.20;0.88;;;33.50;29.80;;;;;;5057036;28;20037;-83
2022/05/08 14:45:17;;;;;;;3.08;0.85;;;33.60;29.80;;;;;;5022278;28;20154;-84
2022/05/08 14:48:21;;;;;;;2.55;0.63;;;33.40;29.60;;;;;;5056944;28;20025;-83
2022/05/08 14:51:11;;;;;;;2.53;0.55;;;33.50;29.60;;;;;;5038740;28;20037;-83
2022/05/08 14:53:40;;;;;;;3.90;0.70;;;33.50;29.50;;;;;;5021601;28;20098;-84
2022/05/08 14:56:43;;;;;;;6.50;0.98;;;33.70;29.70;;;;;;5016662;28;20041;-83
2022/05/08 14:59:12;;;;;;;3.70;0.82;;;33.80;29.20;;;;;;5018661;28;20124;-83
2022/05/08 15:08:06;;;;;;;4.50;0.73;;;33.90;28.90;;;;;;5056512;28;20036;-83
2022/05/08 15:10:33;;;;;;;3.58;0.73;;;33.80;28.60;;;;;;5038301;28;20393;-83
2022/05/08 15:13:00;;;;;;;3.95;0.60;;;33.80;29.00;;;;;;5037998;28;20057;-83
2022/05/08 15:15:44;;;;;;;4.70;0.65;;;33.80;28.90;;;;;;5021826;28;20094;-83
2022/05/08 15:18:48;;;;;;;3.65;0.93;;;33.80;28.70;;;;;;5041019;28;20035;-83